createdAt,value
2022-09-14T00:00:31.427Z,64.06
2022-09-14T00:03:55.208Z,64.07
2022-09-14T00:06:56.743Z,64.07
2022-09-14T00:09:58.239Z,64.06
2022-09-14T00:12:59.913Z,64.05
2022-09-14T00:16:04.873Z,64.10
2022-09-14T00:19:14.627Z,64.18
2022-09-14T00:22:16.087Z,64.07
2022-09-14T00:25:17.731Z,64.09
2022-09-14T00:28:19.183Z,64.08
2022-09-14T00:31:21.628Z,64.05
2022-09-14T00:34:23.249Z,64.09
2022-09-14T00:37:24.975Z,64.06
2022-09-14T00:40:26.552Z,64.04
2022-09-14T00:43:28.105Z,64.04
2022-09-14T00:46:34.573Z,64.04
2022-09-14T00:49:39.703Z,64.02
2022-09-14T00:52:44.923Z,63.97
2022-09-14T00:55:46.540Z,64.00
2022-09-14T00:58:52.576Z,64.06
2022-09-14T01:01:54.986Z,64.06
2022-09-14T01:04:56.923Z,64.04
2022-09-14T01:08:29.044Z,63.98
2022-09-14T01:12:10.462Z,64.02
2022-09-14T01:15:20.541Z,63.94
2022-09-14T01:18:32.209Z,64.09
2022-09-14T01:21:37.616Z,64.13
2022-09-14T01:25:04.667Z,64.11
2022-09-14T01:28:22.438Z,64.07
2022-09-14T01:32:05.293Z,64.19
2022-09-14T01:35:34.634Z,64.08
2022-09-14T01:38:43.448Z,64.18
2022-09-14T01:41:46.917Z,64.25
2022-09-14T01:44:52.685Z,64.27
2022-09-14T01:48:00.186Z,64.20
2022-09-14T01:51:07.803Z,64.18
2022-09-14T01:54:20.066Z,64.20
2022-09-14T01:57:31.274Z,64.16
2022-09-14T02:00:34.062Z,64.18
2022-09-14T02:03:41.386Z,64.17
2022-09-14T02:06:46.893Z,64.21
2022-09-14T02:09:50.347Z,64.20
2022-09-14T02:12:55.131Z,64.12
2022-09-14T02:15:56.729Z,64.17
2022-09-14T02:19:01.161Z,64.11
2022-09-14T02:22:03.226Z,64.20
2022-09-14T02:25:05.245Z,64.12
2022-09-14T02:28:07.305Z,64.11
2022-09-14T02:31:27.188Z,64.13
2022-09-14T02:34:43.126Z,64.10
2022-09-14T02:37:56.842Z,64.22
2022-09-14T02:41:36.544Z,64.15
2022-09-14T02:45:03.909Z,64.15
2022-09-14T02:48:26.576Z,64.17
2022-09-14T02:51:48.869Z,64.20
2022-09-14T02:55:17.282Z,64.18
2022-09-14T02:58:18.789Z,64.19
2022-09-14T03:01:22.601Z,64.24
2022-09-14T03:04:24.167Z,64.17
2022-09-14T03:07:25.735Z,64.18
2022-09-14T03:10:27.885Z,64.18
2022-09-14T03:13:29.209Z,64.20
2022-09-14T03:16:31.194Z,64.21
2022-09-14T03:19:32.697Z,64.16
2022-09-14T03:22:34.258Z,64.30
2022-09-14T03:25:40.835Z,64.25
2022-09-14T03:28:42.831Z,64.22
2022-09-14T03:31:44.312Z,64.20
2022-09-14T03:34:45.823Z,64.30
2022-09-14T03:37:47.293Z,64.35
2022-09-14T03:40:48.864Z,64.36
2022-09-14T03:43:50.746Z,64.44
2022-09-14T03:46:52.375Z,64.51
2022-09-14T03:49:54.125Z,64.52
2022-09-14T03:52:55.790Z,64.48
2022-09-14T03:55:57.920Z,64.50
2022-09-14T03:58:59.413Z,64.55
2022-09-14T04:02:01.700Z,64.57
2022-09-14T04:05:03.456Z,64.60
2022-09-14T04:08:04.999Z,64.60
2022-09-14T04:11:13.979Z,64.59
2022-09-14T04:14:15.947Z,64.65
2022-09-14T04:17:17.727Z,64.74
2022-09-14T04:20:19.627Z,64.77
2022-09-14T04:23:21.181Z,64.68
2022-09-14T04:26:26.183Z,64.74
2022-09-14T04:29:29.837Z,64.82
2022-09-14T04:32:34.410Z,64.77
2022-09-14T04:35:37.157Z,64.97
2022-09-14T04:38:40.309Z,64.88
2022-09-14T04:41:42.325Z,64.92
2022-09-14T04:44:43.854Z,64.96
2022-09-14T04:47:45.509Z,65.09
2022-09-14T04:50:47.270Z,65.18
2022-09-14T04:53:51.096Z,65.23
2022-09-14T04:56:52.620Z,65.17
2022-09-14T04:59:54.110Z,65.23
2022-09-14T05:02:55.670Z,65.38
2022-09-14T05:06:14.638Z,65.38
2022-09-14T05:09:17.689Z,65.39
2022-09-14T05:12:19.150Z,65.38
2022-09-14T05:15:20.630Z,65.40
2022-09-14T05:18:22.133Z,65.53
2022-09-14T05:21:24.558Z,65.62
2022-09-14T05:24:26.237Z,65.73
2022-09-14T05:27:27.712Z,65.75
2022-09-14T05:30:29.284Z,65.68
2022-09-14T05:33:30.733Z,65.77
2022-09-14T05:36:32.230Z,65.83
2022-09-14T05:39:33.862Z,65.95
2022-09-14T05:42:35.405Z,65.87
2022-09-14T05:45:37.000Z,66.04
2022-09-14T05:48:39.868Z,65.96
2022-09-14T05:51:41.421Z,65.88
2022-09-14T05:54:42.865Z,65.93
2022-09-14T05:57:49.178Z,65.90
2022-09-14T06:00:50.595Z,65.92
2022-09-14T06:03:57.768Z,65.87
2022-09-14T06:07:17.323Z,65.86
2022-09-14T06:10:21.125Z,65.84
2022-09-14T06:13:22.866Z,65.88
2022-09-14T06:16:28.839Z,65.90
2022-09-14T06:19:30.380Z,65.91
2022-09-14T06:22:31.854Z,66.02
2022-09-14T06:25:33.271Z,66.06
2022-09-14T06:28:35.657Z,66.00
2022-09-14T06:31:37.534Z,66.05
2022-09-14T06:34:39.684Z,66.09
2022-09-14T06:37:41.149Z,66.11
2022-09-14T06:40:51.514Z,66.13
2022-09-14T06:43:56.158Z,66.13
2022-09-14T06:46:57.614Z,66.54
2022-09-14T06:49:59.800Z,67.49
2022-09-14T06:53:01.326Z,67.37
2022-09-14T06:56:03.006Z,67.41
2022-09-14T06:59:07.544Z,67.16
2022-09-14T07:02:11.638Z,67.23
2022-09-14T07:05:15.081Z,67.29
2022-09-14T07:08:16.661Z,67.23
2022-09-14T07:11:20.900Z,66.92
2022-09-14T07:14:22.512Z,66.95
2022-09-14T07:17:24.073Z,66.83
2022-09-14T07:20:25.701Z,66.64
2022-09-14T07:23:27.457Z,66.68
2022-09-14T07:26:38.874Z,66.67
2022-09-14T07:29:40.461Z,66.97
2022-09-14T07:32:41.940Z,67.22
2022-09-14T07:35:43.421Z,66.98
2022-09-14T07:38:53.215Z,66.45
2022-09-14T07:41:55.063Z,66.24
2022-09-14T07:44:56.565Z,66.30
2022-09-14T07:47:58.718Z,66.09
2022-09-14T07:51:04.251Z,66.02
2022-09-14T07:54:07.770Z,66.02
2022-09-14T07:57:10.681Z,66.09
2022-09-14T08:00:13.802Z,66.19
2022-09-14T08:03:15.842Z,66.17
2022-09-14T08:06:23.284Z,66.30
2022-09-14T08:09:25.679Z,66.39
2022-09-14T08:12:27.356Z,66.51
2022-09-14T08:15:28.930Z,66.49
2022-09-14T08:18:31.230Z,66.51
2022-09-14T08:21:35.028Z,66.60
2022-09-14T08:24:36.540Z,66.67
2022-09-14T08:27:39.075Z,66.70
2022-09-14T08:30:40.959Z,66.66
2022-09-14T08:33:45.842Z,66.75
2022-09-14T08:36:48.536Z,66.80
2022-09-14T08:39:51.787Z,66.84
2022-09-14T08:42:58.137Z,66.96
2022-09-14T08:46:04.125Z,66.89
2022-09-14T08:49:14.107Z,66.89
2022-09-14T08:52:35.311Z,66.84
2022-09-14T08:55:44.589Z,66.81
2022-09-14T08:59:16.791Z,66.98
2022-09-14T09:02:32.611Z,66.97
2022-09-14T09:05:51.209Z,66.85
2022-09-14T09:09:09.683Z,66.81
2022-09-14T09:12:19.921Z,66.56
2022-09-14T09:15:42.479Z,66.60
2022-09-14T09:18:48.814Z,66.49
2022-09-14T09:21:51.279Z,66.53
2022-09-14T09:24:54.450Z,66.55
2022-09-14T09:28:02.814Z,66.54
2022-09-14T09:31:10.230Z,66.45
2022-09-14T09:34:34.336Z,66.34
2022-09-14T09:37:45.975Z,66.26
2022-09-14T09:40:53.797Z,66.11
2022-09-14T09:44:08.786Z,66.20
2022-09-14T09:47:10.600Z,66.11
2022-09-14T09:50:24.510Z,66.12
2022-09-14T09:53:27.046Z,66.10
2022-09-14T09:56:32.780Z,65.95
2022-09-14T09:59:40.456Z,65.79
2022-09-14T10:02:42.075Z,65.67
2022-09-14T10:05:43.672Z,65.81
2022-09-14T10:08:46.974Z,65.88
2022-09-14T10:12:03.319Z,65.92
2022-09-14T10:15:32.382Z,65.98
2022-09-14T10:18:34.977Z,66.01
2022-09-14T10:22:04.997Z,65.90
2022-09-14T10:25:12.616Z,65.73
2022-09-14T10:28:24.252Z,65.65
2022-09-14T10:31:31.069Z,65.58
2022-09-14T10:34:33.209Z,65.49
2022-09-14T10:37:55.854Z,65.22
2022-09-14T10:41:14.793Z,65.35
2022-09-14T10:44:53.220Z,65.08
2022-09-14T10:48:28.412Z,64.82
2022-09-14T10:51:38.403Z,64.89
2022-09-14T10:55:24.876Z,65.08
2022-09-14T10:58:38.960Z,65.25
2022-09-14T11:02:00.878Z,65.09
2022-09-14T11:05:21.258Z,65.18
2022-09-14T11:08:34.846Z,64.87
2022-09-14T11:11:47.849Z,64.52
2022-09-14T11:15:04.210Z,64.40
2022-09-14T11:18:24.520Z,64.49
2022-09-14T11:21:36.022Z,64.58
2022-09-14T11:24:47.917Z,64.42
2022-09-14T11:28:19.060Z,64.11
2022-09-14T11:31:32.277Z,64.11
2022-09-14T11:34:40.578Z,63.95
2022-09-14T11:37:48.736Z,63.95
2022-09-14T11:41:02.261Z,63.84
2022-09-14T11:44:11.865Z,63.87
2022-09-14T11:47:19.646Z,63.85
2022-09-14T11:50:28.102Z,64.04
2022-09-14T11:53:32.119Z,64.06
2022-09-14T11:56:34.014Z,64.23
2022-09-14T11:59:49.717Z,64.40
2022-09-14T12:02:58.490Z,64.51
2022-09-14T12:06:35.055Z,64.50
2022-09-14T12:09:41.199Z,64.74
2022-09-14T12:12:46.674Z,64.83
2022-09-14T12:16:00.834Z,64.95
2022-09-14T12:19:03.155Z,65.08
2022-09-14T12:22:32.479Z,65.20
2022-09-14T12:25:34.596Z,65.41
2022-09-14T12:28:38.929Z,65.62
2022-09-14T12:31:43.787Z,65.73
2022-09-14T12:34:45.262Z,65.87
2022-09-14T12:37:46.765Z,65.95
2022-09-14T12:40:48.224Z,66.16
2022-09-14T12:43:50.075Z,66.36
2022-09-14T12:46:51.705Z,66.38
2022-09-14T12:49:58.001Z,66.52
2022-09-14T12:53:23.663Z,66.70
2022-09-14T12:56:40.379Z,66.85
2022-09-14T13:00:00.956Z,67.05
2022-09-14T13:03:22.438Z,67.01
2022-09-14T13:06:32.023Z,67.09
2022-09-14T13:09:33.998Z,67.32
2022-09-14T13:12:44.615Z,67.33
2022-09-14T13:15:55.351Z,67.42
2022-09-14T13:19:07.981Z,67.49
2022-09-14T13:22:20.433Z,67.68
2022-09-14T13:25:35.911Z,67.66
2022-09-14T13:28:38.459Z,67.81
2022-09-14T13:31:40.527Z,67.85
2022-09-14T13:34:43.403Z,67.86
2022-09-14T13:37:48.305Z,68.15
2022-09-14T13:40:54.711Z,68.19
2022-09-14T13:43:57.826Z,68.48
2022-09-14T13:47:02.759Z,68.45
2022-09-14T13:50:06.853Z,68.55
2022-09-14T13:53:48.153Z,68.55
2022-09-14T13:57:18.854Z,68.48
2022-09-14T14:00:20.974Z,68.59
2022-09-14T14:03:28.195Z,68.61
2022-09-14T14:06:32.188Z,68.83
2022-09-14T14:09:52.523Z,68.87
2022-09-14T14:12:55.108Z,68.90
2022-09-14T14:16:15.180Z,68.99
2022-09-14T14:19:28.158Z,68.88
2022-09-14T14:22:33.518Z,68.92
2022-09-14T14:25:42.145Z,68.94
2022-09-14T14:28:46.639Z,69.01
2022-09-14T14:31:48.560Z,69.04
2022-09-14T14:34:52.418Z,69.09
2022-09-14T14:37:54.600Z,69.01
2022-09-14T14:40:57.401Z,69.06
2022-09-14T14:43:59.012Z,69.20
2022-09-14T14:47:00.443Z,69.20
2022-09-14T14:50:03.618Z,69.29
2022-09-14T14:53:06.117Z,69.33
2022-09-14T14:56:11.380Z,69.28
2022-09-14T14:59:18.958Z,69.24
2022-09-14T15:02:20.436Z,69.40
2022-09-14T15:05:21.990Z,69.45
2022-09-14T15:08:23.526Z,69.50
2022-09-14T15:11:24.967Z,69.52
2022-09-14T15:14:27.452Z,69.59
2022-09-14T15:17:29.038Z,69.70
2022-09-14T15:20:30.498Z,69.76
2022-09-14T15:23:32.510Z,69.80
2022-09-14T15:26:34.620Z,69.82
2022-09-14T15:29:35.953Z,69.95
2022-09-14T15:32:39.719Z,69.84
2022-09-14T15:35:41.191Z,69.97
2022-09-14T15:38:42.655Z,70.02
2022-09-14T15:41:45.135Z,70.11
2022-09-14T15:44:46.869Z,70.06
2022-09-14T15:47:48.553Z,70.19
2022-09-14T15:50:50.040Z,70.10
2022-09-14T15:53:56.927Z,70.18
2022-09-14T15:56:59.485Z,70.15
2022-09-14T16:00:03.931Z,70.25
2022-09-14T16:03:15.191Z,70.35
2022-09-14T16:06:16.745Z,70.47
2022-09-14T16:09:21.924Z,70.45
2022-09-14T16:12:23.751Z,70.39
2022-09-14T16:15:25.461Z,70.46
2022-09-14T16:18:27.225Z,70.52
2022-09-14T16:21:29.440Z,70.57
2022-09-14T16:24:31.644Z,70.62
2022-09-14T16:27:33.258Z,70.63
2022-09-14T16:30:34.910Z,70.64
2022-09-14T16:33:42.535Z,70.62
2022-09-14T16:36:44.946Z,70.72
2022-09-14T16:39:47.534Z,70.72
2022-09-14T16:42:50.908Z,70.75
2022-09-14T16:46:03.220Z,70.78
2022-09-14T16:49:05.558Z,70.69
2022-09-14T16:52:07.421Z,70.82
2022-09-14T16:55:09.406Z,70.83
2022-09-14T16:58:12.055Z,70.89
2022-09-14T17:01:23.196Z,70.98
2022-09-14T17:04:25.158Z,70.99
2022-09-14T17:07:26.817Z,71.04
2022-09-14T17:10:32.669Z,71.15
2022-09-14T17:13:38.230Z,71.21
2022-09-14T17:16:40.129Z,71.28
2022-09-14T17:19:43.827Z,71.23
2022-09-14T17:22:46.923Z,71.26
2022-09-14T17:25:49.112Z,71.35
2022-09-14T17:28:53.598Z,71.37
2022-09-14T17:31:55.331Z,71.35
2022-09-14T17:34:57.121Z,71.44
2022-09-14T17:37:59.370Z,71.38
2022-09-14T17:41:08.435Z,71.36
2022-09-14T17:44:13.106Z,71.41
2022-09-14T17:47:17.269Z,71.39
2022-09-14T17:50:20.817Z,71.52
2022-09-14T17:53:22.772Z,71.53
2022-09-14T17:56:27.511Z,71.49
2022-09-14T17:59:29.556Z,71.55
2022-09-14T18:02:31.850Z,71.62
2022-09-14T18:05:33.983Z,71.63
2022-09-14T18:08:38.168Z,71.54
2022-09-14T18:11:40.306Z,71.64
2022-09-14T18:14:42.133Z,71.54
2022-09-14T18:17:45.769Z,71.44
2022-09-14T18:20:47.736Z,71.57
2022-09-14T18:23:51.112Z,71.66
2022-09-14T18:26:53.101Z,71.59
2022-09-14T18:29:55.070Z,71.57
2022-09-14T18:32:57.093Z,71.70
2022-09-14T18:35:59.523Z,71.71
2022-09-14T18:39:02.001Z,71.72
2022-09-14T18:42:04.157Z,71.61
2022-09-14T18:45:06.197Z,71.75
2022-09-14T18:48:08.246Z,71.74
2022-09-14T18:51:12.275Z,71.78
2022-09-14T18:54:14.708Z,71.68
2022-09-14T18:57:19.344Z,71.78
2022-09-14T19:00:21.623Z,71.73
2022-09-14T19:03:24.200Z,71.70
2022-09-14T19:06:26.431Z,71.64
2022-09-14T19:09:28.232Z,71.58
2022-09-14T19:12:31.131Z,71.61
2022-09-14T19:15:34.942Z,71.82
2022-09-14T19:18:37.737Z,71.68
2022-09-14T19:21:40.248Z,71.64
2022-09-14T19:24:43.506Z,71.59
2022-09-14T19:27:51.896Z,71.51
2022-09-14T19:30:54.818Z,71.44
2022-09-14T19:34:03.088Z,71.41
2022-09-14T19:37:05.286Z,71.45
2022-09-14T19:40:08.940Z,71.45
2022-09-14T19:43:11.336Z,71.49
2022-09-14T19:46:16.655Z,71.52
2022-09-14T19:49:24.481Z,71.39
2022-09-14T19:52:26.323Z,71.51
2022-09-14T19:55:28.128Z,71.55
2022-09-14T19:58:33.725Z,71.51
2022-09-14T20:01:38.693Z,71.67
2022-09-14T20:04:40.652Z,71.67
2022-09-14T20:07:44.881Z,71.62
2022-09-14T20:10:47.359Z,71.62
2022-09-14T20:13:52.439Z,71.66
2022-09-14T20:16:57.241Z,71.60
2022-09-14T20:19:58.731Z,71.76
2022-09-14T20:23:04.805Z,71.77
2022-09-14T20:26:09.019Z,71.70
2022-09-14T20:29:10.587Z,71.76
2022-09-14T20:32:19.569Z,71.86
2022-09-14T20:35:21.917Z,71.87
2022-09-14T20:38:23.865Z,71.96
2022-09-14T20:41:31.407Z,71.90
2022-09-14T20:44:37.047Z,71.90
2022-09-14T20:47:38.953Z,72.05
2022-09-14T20:50:50.353Z,72.02
2022-09-14T20:53:58.343Z,72.13
2022-09-14T20:57:04.233Z,72.25
2022-09-14T21:00:06.880Z,72.22
2022-09-14T21:03:17.670Z,72.28
2022-09-14T21:06:24.287Z,72.33
2022-09-14T21:09:26.594Z,72.42
2022-09-14T21:12:28.738Z,72.39
2022-09-14T21:15:34.339Z,72.47
2022-09-14T21:18:40.607Z,72.56
2022-09-14T21:21:43.071Z,72.61
2022-09-14T21:24:44.830Z,72.59
2022-09-14T21:27:49.011Z,72.64
2022-09-14T21:30:53.374Z,72.77
2022-09-14T21:33:58.934Z,72.73
2022-09-14T21:37:03.547Z,72.79
2022-09-14T21:40:05.915Z,72.94
2022-09-14T21:43:08.091Z,72.89
2022-09-14T21:46:10.963Z,72.98
2022-09-14T21:49:15.707Z,72.97
2022-09-14T21:52:17.367Z,73.07
2022-09-14T21:55:21.125Z,73.11
2022-09-14T21:58:22.868Z,73.17
2022-09-14T22:01:25.563Z,73.20
2022-09-14T22:04:27.153Z,73.27
2022-09-14T22:07:28.953Z,73.35
2022-09-14T22:10:30.467Z,73.36
2022-09-14T22:13:32.336Z,73.36
2022-09-14T22:16:36.325Z,73.44
2022-09-14T22:19:37.925Z,73.42
2022-09-14T22:22:42.153Z,73.51
2022-09-14T22:25:43.693Z,73.45
2022-09-14T22:28:47.493Z,73.65
2022-09-14T22:31:49.509Z,73.63
2022-09-14T22:34:51.110Z,73.64
2022-09-14T22:37:52.548Z,73.74
2022-09-14T22:40:55.380Z,73.77
2022-09-14T22:43:58.021Z,73.79
2022-09-14T22:46:59.570Z,73.85
2022-09-14T22:50:01.288Z,73.73
2022-09-14T22:53:02.841Z,73.83
2022-09-14T22:56:17.373Z,73.87
2022-09-14T22:59:18.846Z,73.97
2022-09-14T23:02:20.501Z,73.99
2022-09-14T23:05:22.071Z,74.02
2022-09-14T23:08:23.758Z,74.07
2022-09-14T23:11:25.569Z,74.04
2022-09-14T23:14:27.285Z,74.09
2022-09-14T23:17:28.768Z,74.06
2022-09-14T23:20:31.481Z,74.11
2022-09-14T23:23:33.192Z,74.18
2022-09-14T23:26:34.790Z,74.20
2022-09-14T23:29:36.258Z,74.27
2022-09-14T23:32:37.831Z,74.38
2022-09-14T23:35:39.289Z,74.33
2022-09-14T23:38:42.273Z,74.36
2022-09-14T23:41:43.710Z,74.39
2022-09-14T23:44:45.440Z,74.37
2022-09-14T23:47:47.039Z,74.50
2022-09-14T23:50:59.290Z,74.62
2022-09-14T23:54:00.765Z,74.60
2022-09-14T23:57:02.412Z,74.57
